Terminal Aerodrome Forecast
Issued by NWS

Home | Current Version | Previous Version | Text Only | Print | Product List | Glossary On
Versions: 1 2 3 4 5 6 7 8 9 10 11 12 13 14 15 16
283
FTUS43 KLSX 202322
TAFUIN
TAF
KUIN 202322Z 2100/2124 01010KT P6SM SCT200
     FM211400 05010KT P6SM SCT200
     FM211700 04012G18KT P6SM BKN040=

USA.gov is the U.S. government's official web portal to all federal, state and local government web resources and services.